Statistiken

Seite 112 von 349 |< · · [109] [110] [111] [112] [113] [114] [115] · · >|

Die meistgelesenen Zitate

Nr. Zitat Pkte. Bew. Aufr. Mails Kom. Datum
5551 Zum Verlieren ist nichts besser als Vergessen. ... -1.0525 305 4959 0 0 26.08.05 00:00
5552 Leerer Gruß Geht barfuß. ... -1.0658 304 4959 0 0 26.08.05 00:00
5553 Der Edelleute Feste fallen selten in den Christmond. ... -1.1154 312 4959 0 27 26.08.05 00:00
5554 Journalisten sind die Geburtshelfer und Totengräber ... -0.8780 328 4958 2 0 04.08.05 18:55
5555 Geld führt den Krieg. ... -0.9813 321 4957 3 1 26.08.05 00:00
5556 Sag eine Lüge, so hörst du die Wahrheit. ... -1.0639 313 4956 1 2 26.08.05 00:00
5557 Freunde mit dem Mund, Einer auf ein Pfund; ... 0.8780 828 4954 1 0 26.08.05 00:00
5558 Jeder Arbeiter ist seines Lohnes wert. ... -1.0651 307 4954 0 0 26.08.05 00:00
5559 Sterben und geboren werden Ist des Menschen ... -1.0393 305 4952 0 0 26.08.05 00:00
5560 Neid ist des Glücks Gefährte. ... -1.0290 310 4951 0 0 26.08.05 00:00
5561 Laß den Storch in seinem Nest zufrieden. ... -0.8611 324 4950 0 1 26.08.05 00:00
5562 Wer Rosen nicht im Sommer bricht, der bricht ... -1.0386 311 4949 0 0 26.08.05 00:00
5563 Anschauen macht Liebe, Gelegenheit Diebe. ... -0.9937 316 4945 0 0 26.08.05 00:00
5564 Ordnung erhält die Welt. ... -0.4124 388 4942 0 1 26.08.05 00:00
5565 Wo haben wir zusammen die Schweine gehütet? ... -0.9904 312 4941 0 0 26.08.05 00:00
5566 Das Barbarische ist für mich ein Verjüngungsmittel. ... -1.0438 320 4940 0 1 03.02.06 09:22
5567 Viele können einem helfen. ... -1.0631 301 4939 0 0 26.08.05 00:00
5568 Der Mann taub und die Frau stumm gibt die besten Ehen. ... -1.0421 309 4938 4 0 26.08.05 00:00
5569 Pfaffenknechte essen im Schweiß; Von Arbeit ... -1.1003 309 4938 0 0 26.08.05 00:00
5570 Wer leicht traut, wird leicht betrogen. ... -0.8471 327 4937 2 0 26.08.05 00:00
5571 Ein Vater ernährt eher zehn Kinder als zehn ... -1.0227 309 4937 1 0 26.08.05 00:00
5572 Wenn Hochzeiter und Braut beisammen sind, ... -1.1065 310 4937 0 0 26.08.05 00:00
5573 Das Wasser ist am besten an der Quelle. ... -1.0032 310 4936 1 0 26.08.05 00:00
5574 Geld ist Königin, Tugend und Kunst ihre ... -1.0754 305 4934 0 0 26.08.05 00:00
5575 Die Gans geht so lange zur Küche, bis sie ... -1.0984 305 4933 1 3 26.08.05 00:00
5576 Weise Leute haben ihren Mund im Herzen. ... -1.0032 309 4929 1 3 26.08.05 00:00
5577 Männer verschweigen fremde, Weiber eigene Geheimnisse. ... -1.0864 301 4927 7 0 26.08.05 00:00
5578 Im Spiegel sieht man die Gestalt, im Wein das Herz. ... -1.0825 303 4927 0 0 26.08.05 00:00
5579 Armut sucht neue Wege. ... -0.9780 318 4925 0 0 26.08.05 00:00
5580 Titel ohne Mittel sind wie ein Haus ohne Dach. ... -0.9872 313 4924 0 0 26.08.05 00:00
5581 Die Kunst bedarf des Glücks, und das Glück ... -1.0521 307 4924 0 0 26.08.05 00:00
5582 Hätt' ich Glück und guten Wind, ich führ' ... -1.0647 309 4924 0 0 26.08.05 00:00
5583 Morgen, morgen, nur nicht heute, sprechen ... -1.0867 300 4923 0 0 26.08.05 00:00
5584 Es ist, als trüge ich eine Notenpresse mit ... -0.9517 331 4922 2 7 08.03.07 12:47
5585 Wer die Eltern ehrt, den ehrt Gott wieder. ... 1.0612 1013 4921 0 0 26.08.05 00:00
5586 Das Glück ist kugelrund, Es trifft wohl ... -1.1150 313 4921 0 0 26.08.05 00:00
5587 Hast du gut gekocht, so magst du gut essen. ... -1.0535 318 4920 0 16 26.08.05 00:00
5588 Ein fauler Apfel macht zehn. ... -1.0664 301 4918 0 0 26.08.05 00:00
5589 Rost frisst Eisen, Sorge den Menschen. ... 0.3966 580 4917 1 0 01.02.06 15:51
5590 Schmeichler, Heuchler. ... -0.6289 353 4916 0 0 26.08.05 00:00
5591 Katzenkinder lernen wohl mausen. ... -1.0903 299 4915 0 0 26.08.05 00:00
5592 Frauenfleisch ist leichter zu bekommen denn Kalbfleisch. ... 0.2226 530 4913 1 0 26.08.05 00:00
5593 Wie sollen wir die Meere erforschen, wenn ... -0.9534 322 4909 3 4 09.10.07 18:28
5594 Selbstverstümmelung ist der einzige Weg zur Erleuchtung! ... -1.0118 339 4909 1 7 26.09.07 12:29
5595 Neid ist des Narren Leid. ... -1.0032 311 4907 26 0 26.08.05 00:00
5596 Bergab leite mich, bergauf schone mich, in ... -1.0425 306 4905 1 0 26.08.05 00:00
5597 Warten vexiert. ... -1.0660 303 4905 0 4 26.08.05 00:00
5598 Glück fragt nicht nach Recht. ... -1.0660 303 4904 1 0 26.08.05 00:00
5599 Fische und Frauen sind am besten am Sterz. ... -1.0255 314 4904 0 0 26.08.05 00:00
5600 Laß die Leute reden und die Hunde bellen. ... -1.0423 307 4904 0 0 26.08.05 00:00

[Favoriten] [Punkte] [Bewertungen] [Aufrufe] [Mails] [Kommentare] [Datum]

Seite 112 von 349 |< · < · [1] [2] [3] [4] [5] [6] [7] [8] [9] [10] [11] [12] [13] [14] [15] [16] [17] [18] [19] [20] [21] [22] [23] [24] [25] [26] [27] [28] [29] [30] [31] [32] [33] [34] [35] [36] [37] [38] [39] [40] [41] [42] [43] [44] [45] [46] [47] [48] [49] [50] [51] [52] [53] [54] [55] [56] [57] [58] [59] [60] [61] [62] [63] [64] [65] [66] [67] [68] [69] [70] [71] [72] [73] [74] [75] [76] [77] [78] [79] [80] [81] [82] [83] [84] [85] [86] [87] [88] [89] [90] [91] [92] [93] [94] [95] [96] [97] [98] [99] [100] [101] [102] [103] [104] [105] [106] [107] [108] [109] [110] [111] [112] [113] [114] [115] [116] [117] [118] [119] [120] [121] [122] [123] [124] [125] [126] [127] [128] [129] [130] [131] [132] [133] [134] [135] [136] [137] [138] [139] [140] [141] [142] [143] [144] [145] [146] [147] [148] [149] [150] [151] [152] [153] [154] [155] [156] [157] [158] [159] [160] [161] [162] [163] [164] [165] [166] [167] [168] [169] [170] [171] [172] [173] [174] [175] [176] [177] [178] [179] [180] [181] [182] [183] [184] [185] [186] [187] [188] [189] [190] [191] [192] [193] [194] [195] [196] [197] [198] [199] [200] [201] [202] [203] [204] [205] [206] [207] [208] [209] [210] [211] [212] [213] [214] [215] [216] [217] [218] [219] [220] [221] [222] [223] [224] [225] [226] [227] [228] [229] [230] [231] [232] [233] [234] [235] [236] [237] [238] [239] [240] [241] [242] [243] [244] [245] [246] [247] [248] [249] [250] [251] [252] [253] [254] [255] [256] [257] [258] [259] [260] [261] [262] [263] [264] [265] [266] [267] [268] [269] [270] [271] [272] [273] [274] [275] [276] [277] [278] [279] [280] [281] [282] [283] [284] [285] [286] [287] [288] [289] [290] [291] [292] [293] [294] [295] [296] [297] [298] [299] [300] [301] [302] [303] [304] [305] [306] [307] [308] [309] [310] [311] [312] [313] [314] [315] [316] [317] [318] [319] [320] [321] [322] [323] [324] [325] [326] [327] [328] [329] [330] [331] [332] [333] [334] [335] [336] [337] [338] [339] [340] [341] [342] [343] [344] [345] [346] [347] [348] [349] · > · >|

Zuletzt gesucht